createdAt,value
2024-01-14T00:01:48.805Z,62.96
2024-01-14T00:04:15.242Z,63.39
2024-01-14T00:06:41.901Z,63.90
2024-01-14T00:09:08.362Z,64.36
2024-01-14T00:11:34.979Z,64.45
2024-01-14T00:14:01.379Z,64.85
2024-01-14T00:16:27.954Z,65.45
2024-01-14T00:18:54.527Z,66.06
2024-01-14T00:21:21.308Z,66.40
2024-01-14T00:23:47.813Z,65.32
2024-01-14T00:26:14.431Z,63.99
2024-01-14T00:28:40.844Z,63.16
2024-01-14T00:31:07.583Z,62.78
2024-01-14T00:33:34.231Z,62.66
2024-01-14T00:36:00.979Z,62.65
2024-01-14T00:38:27.394Z,62.75
2024-01-14T00:40:54.003Z,63.45
2024-01-14T00:43:20.406Z,63.98
2024-01-14T00:45:46.804Z,64.46
2024-01-14T00:48:13.345Z,64.68
2024-01-14T00:50:39.863Z,64.87
2024-01-14T00:53:06.244Z,65.80
2024-01-14T00:55:34.103Z,67.43
2024-01-14T00:58:00.788Z,65.76
2024-01-14T01:00:27.234Z,64.39
2024-01-14T01:02:53.778Z,62.86
2024-01-14T01:05:20.252Z,62.68
2024-01-14T01:07:46.748Z,62.59
2024-01-14T01:10:13.149Z,62.30
2024-01-14T01:12:39.603Z,62.55
2024-01-14T01:15:06.058Z,62.89
2024-01-14T01:17:32.484Z,63.45
2024-01-14T01:19:58.914Z,64.13
2024-01-14T01:22:25.324Z,64.38
2024-01-14T01:24:51.721Z,64.72
2024-01-14T01:27:18.228Z,65.25
2024-01-14T01:29:44.712Z,66.86
2024-01-14T01:32:11.426Z,65.91
2024-01-14T01:34:38.146Z,64.79
2024-01-14T01:37:04.987Z,63.63
2024-01-14T01:39:31.443Z,62.46
2024-01-14T01:41:58.091Z,62.42
2024-01-14T01:44:24.477Z,62.32
2024-01-14T01:46:50.900Z,62.72
2024-01-14T01:49:17.365Z,63.00
2024-01-14T01:51:43.850Z,63.36
2024-01-14T01:54:10.305Z,63.96
2024-01-14T01:56:36.723Z,64.20
2024-01-14T01:59:03.142Z,64.30
2024-01-14T02:01:29.640Z,65.14
2024-01-14T02:03:56.388Z,66.35
2024-01-14T02:06:22.908Z,66.68
2024-01-14T02:08:49.578Z,65.51
2024-01-14T02:11:15.993Z,63.88
2024-01-14T02:13:42.675Z,63.01
2024-01-14T02:16:09.088Z,62.63
2024-01-14T02:18:35.748Z,62.55
2024-01-14T02:21:02.257Z,62.44
2024-01-14T02:23:28.635Z,62.95
2024-01-14T02:26:13.625Z,63.38
2024-01-14T02:28:58.821Z,63.98
2024-01-14T02:31:43.793Z,64.34
2024-01-14T02:34:29.014Z,64.76
2024-01-14T02:37:14.027Z,65.38
2024-01-14T02:39:58.985Z,67.27
2024-01-14T02:42:44.396Z,65.73
2024-01-14T02:45:29.385Z,64.31
2024-01-14T02:48:14.752Z,63.46
2024-01-14T02:50:59.812Z,62.70
2024-01-14T02:53:44.759Z,63.19
2024-01-14T02:56:29.437Z,63.55
2024-01-14T02:59:14.524Z,64.00
2024-01-14T03:01:59.272Z,64.60
2024-01-14T03:04:44.196Z,64.95
2024-01-14T03:07:29.274Z,65.59
2024-01-14T03:10:14.251Z,65.51
2024-01-14T03:12:59.059Z,66.10
2024-01-14T03:15:44.119Z,67.07
2024-01-14T03:18:29.277Z,65.65
2024-01-14T03:21:14.357Z,64.26
2024-01-14T03:23:59.349Z,63.86
2024-01-14T03:26:44.477Z,63.67
2024-01-14T03:29:29.549Z,63.70
2024-01-14T03:32:14.430Z,64.06
2024-01-14T03:34:59.479Z,64.64
2024-01-14T03:37:25.867Z,65.31
2024-01-14T03:39:52.253Z,65.54
2024-01-14T03:42:18.672Z,65.56
2024-01-14T03:44:45.307Z,64.98
2024-01-14T03:47:11.676Z,65.80
2024-01-14T03:49:38.177Z,67.11
2024-01-14T03:52:04.618Z,65.87
2024-01-14T03:54:31.047Z,64.78
2024-01-14T03:56:57.549Z,64.01
2024-01-14T03:59:23.988Z,63.32
2024-01-14T04:01:50.578Z,63.02
2024-01-14T04:04:16.962Z,62.91
2024-01-14T04:06:43.400Z,63.27
2024-01-14T04:09:09.868Z,63.58
2024-01-14T04:11:36.243Z,64.08
2024-01-14T04:14:02.831Z,64.27
2024-01-14T04:16:29.212Z,64.78
2024-01-14T04:18:55.710Z,65.17
2024-01-14T04:21:22.456Z,65.36
2024-01-14T04:23:49.169Z,66.32
2024-01-14T04:26:15.610Z,66.66
2024-01-14T04:28:42.012Z,65.26
2024-01-14T04:31:08.556Z,64.10
2024-01-14T04:33:35.143Z,63.36
2024-01-14T04:36:01.636Z,62.92
2024-01-14T04:38:28.253Z,62.96
2024-01-14T04:40:54.641Z,62.98
2024-01-14T04:43:21.363Z,63.23
2024-01-14T04:45:47.753Z,63.64
2024-01-14T04:48:14.326Z,64.20
2024-01-14T04:50:41.504Z,64.45
2024-01-14T04:53:08.039Z,64.75
2024-01-14T04:55:34.391Z,65.18
2024-01-14T04:58:00.990Z,66.19
2024-01-14T05:00:27.397Z,67.40
2024-01-14T05:02:54.026Z,65.83
2024-01-14T05:05:20.490Z,64.50
2024-01-14T05:07:46.902Z,63.32
2024-01-14T05:10:13.537Z,63.06
2024-01-14T05:12:39.953Z,62.98
2024-01-14T05:15:06.434Z,63.04
2024-01-14T05:17:32.903Z,63.14
2024-01-14T05:19:59.359Z,63.48
2024-01-14T05:22:25.783Z,63.90
2024-01-14T05:24:52.184Z,64.55
2024-01-14T05:27:18.751Z,64.63
2024-01-14T05:29:45.220Z,64.98
2024-01-14T05:32:11.914Z,65.76
2024-01-14T05:34:38.316Z,67.13
2024-01-14T05:37:04.931Z,65.93
2024-01-14T05:39:31.333Z,64.80
2024-01-14T05:41:57.733Z,63.77
2024-01-14T05:44:24.173Z,63.01
2024-01-14T05:46:50.777Z,63.12
2024-01-14T05:49:17.229Z,62.93
2024-01-14T05:51:43.963Z,62.87
2024-01-14T05:54:10.438Z,63.56
2024-01-14T05:56:36.842Z,63.77
2024-01-14T05:59:03.274Z,64.34
2024-01-14T06:01:29.696Z,64.59
2024-01-14T06:03:56.085Z,64.86
2024-01-14T06:06:22.601Z,65.60
2024-01-14T06:08:49.076Z,66.59
2024-01-14T06:11:15.701Z,66.45
2024-01-14T06:13:42.091Z,65.36
2024-01-14T06:16:08.478Z,64.17
2024-01-14T06:18:35.231Z,63.14
2024-01-14T06:21:01.751Z,62.64
2024-01-14T06:23:28.284Z,63.18
2024-01-14T06:25:54.677Z,62.66
2024-01-14T06:28:21.071Z,63.14
2024-01-14T06:30:47.593Z,63.60
2024-01-14T06:33:14.174Z,64.15
2024-01-14T06:35:40.644Z,65.04
2024-01-14T06:38:07.014Z,64.93
2024-01-14T06:40:39.931Z,65.24
2024-01-14T06:43:08.921Z,66.16
2024-01-14T06:45:35.383Z,67.02
2024-01-14T06:48:02.301Z,65.79
2024-01-14T06:50:29.000Z,64.10
2024-01-14T06:52:55.359Z,63.39
2024-01-14T06:55:21.738Z,62.84
2024-01-14T06:57:48.116Z,62.69
2024-01-14T07:00:14.537Z,62.66
2024-01-14T07:02:41.157Z,63.57
2024-01-14T07:05:08.861Z,63.34
2024-01-14T07:07:35.337Z,63.88
2024-01-14T07:10:01.711Z,64.29
2024-01-14T07:12:28.388Z,64.85
2024-01-14T07:14:55.095Z,64.98
2024-01-14T07:17:21.546Z,66.03
2024-01-14T07:19:48.379Z,67.71
2024-01-14T07:22:15.157Z,65.95
2024-01-14T07:24:41.821Z,64.68
2024-01-14T07:27:08.215Z,63.72
2024-01-14T07:29:34.617Z,63.33
2024-01-14T07:32:04.315Z,62.86
2024-01-14T07:34:32.546Z,62.67
2024-01-14T07:36:58.953Z,62.91
2024-01-14T07:39:25.371Z,63.59
2024-01-14T07:41:52.103Z,63.97
2024-01-14T07:44:18.518Z,64.46
2024-01-14T07:46:44.917Z,64.99
2024-01-14T07:49:11.466Z,65.12
2024-01-14T07:51:37.955Z,66.12
2024-01-14T07:54:04.406Z,67.26
2024-01-14T07:56:30.817Z,66.72
2024-01-14T07:58:57.219Z,65.31
2024-01-14T08:01:23.881Z,64.07
2024-01-14T08:03:50.497Z,63.46
2024-01-14T08:06:16.983Z,63.81
2024-01-14T08:08:43.371Z,63.45
2024-01-14T08:11:09.761Z,63.12
2024-01-14T08:13:36.132Z,63.56
2024-01-14T08:16:03.588Z,64.43
2024-01-14T08:18:30.900Z,64.93
2024-01-14T08:20:58.303Z,64.98
2024-01-14T08:23:24.728Z,65.71
2024-01-14T08:25:51.137Z,65.95
2024-01-14T08:28:17.761Z,66.76
2024-01-14T08:30:44.226Z,67.09
2024-01-14T08:33:10.946Z,65.88
2024-01-14T08:35:37.435Z,64.57
2024-01-14T08:38:04.037Z,63.89
2024-01-14T08:40:30.452Z,63.56
2024-01-14T08:42:56.886Z,63.92
2024-01-14T08:45:23.326Z,63.94
2024-01-14T08:47:49.870Z,63.77
2024-01-14T08:50:16.377Z,64.25
2024-01-14T08:52:42.777Z,64.61
2024-01-14T08:55:09.158Z,64.96
2024-01-14T08:57:35.590Z,65.50
2024-01-14T09:00:02.014Z,65.96
2024-01-14T09:02:28.440Z,66.53
2024-01-14T09:04:55.054Z,68.00
2024-01-14T09:07:21.447Z,66.35
2024-01-14T09:09:47.877Z,65.21
2024-01-14T09:12:14.334Z,64.24
2024-01-14T09:14:40.745Z,63.65
2024-01-14T09:17:07.333Z,64.18
2024-01-14T09:19:33.982Z,64.16
2024-01-14T09:22:00.469Z,64.01
2024-01-14T09:24:26.903Z,64.46
2024-01-14T09:26:53.411Z,64.82
2024-01-14T09:29:19.912Z,65.10
2024-01-14T09:31:46.355Z,65.52
2024-01-14T09:34:13.195Z,66.04
2024-01-14T09:36:39.949Z,66.66
2024-01-14T09:39:06.474Z,68.09
2024-01-14T09:41:32.943Z,66.92
2024-01-14T09:43:59.341Z,66.16
2024-01-14T09:46:25.792Z,64.83
2024-01-14T09:48:52.342Z,64.18
2024-01-14T09:51:18.963Z,64.38
2024-01-14T09:53:45.404Z,64.58
2024-01-14T09:56:11.831Z,64.75
2024-01-14T09:58:38.251Z,64.61
2024-01-14T10:01:04.777Z,64.91
2024-01-14T10:03:31.233Z,65.21
2024-01-14T10:05:58.142Z,65.78
2024-01-14T10:08:24.630Z,66.22
2024-01-14T10:10:57.334Z,66.66
2024-01-14T10:13:24.910Z,67.70
2024-01-14T10:18:17.974Z,65.70
2024-01-14T10:20:44.370Z,64.70
2024-01-14T10:23:10.764Z,64.08
2024-01-14T10:25:37.147Z,63.94
2024-01-14T10:28:03.634Z,63.94
2024-01-14T10:30:30.179Z,64.30
2024-01-14T10:33:18.642Z,64.77
2024-01-14T10:35:43.128Z,65.49
2024-01-14T10:38:09.620Z,65.76
2024-01-14T10:40:36.008Z,65.86
2024-01-14T10:43:02.426Z,66.05
2024-01-14T10:45:29.114Z,66.59
2024-01-14T10:47:55.686Z,67.05
2024-01-14T10:50:22.722Z,67.77
2024-01-14T10:52:49.167Z,66.72
2024-01-14T10:55:15.552Z,65.26
2024-01-14T10:57:41.960Z,64.65
2024-01-14T11:00:08.479Z,64.36
2024-01-14T11:02:35.038Z,64.91
2024-01-14T11:05:01.469Z,65.25
2024-01-14T11:07:27.887Z,65.75
2024-01-14T11:09:54.271Z,65.98
2024-01-14T11:12:22.895Z,66.07
2024-01-14T11:14:53.444Z,66.34
2024-01-14T11:17:19.833Z,66.70
2024-01-14T11:19:46.295Z,67.02
2024-01-14T11:22:25.759Z,67.44
2024-01-14T11:24:59.151Z,68.60
2024-01-14T11:27:25.947Z,67.66
2024-01-14T11:29:52.409Z,66.53
2024-01-14T11:32:18.776Z,65.48
2024-01-14T11:34:45.241Z,65.11
2024-01-14T11:37:11.684Z,65.13
2024-01-14T11:39:38.149Z,65.31
2024-01-14T11:42:04.615Z,65.46
2024-01-14T11:44:31.053Z,66.03
2024-01-14T11:46:58.342Z,66.30
2024-01-14T11:49:25.921Z,66.65
2024-01-14T11:51:52.624Z,66.87
2024-01-14T11:54:19.250Z,67.23
2024-01-14T11:56:45.682Z,67.79
2024-01-14T11:59:13.114Z,69.26
2024-01-14T12:01:42.171Z,67.99
2024-01-14T12:04:08.626Z,66.63
2024-01-14T12:06:35.127Z,65.90
2024-01-14T12:09:01.652Z,65.16
2024-01-14T12:11:28.117Z,65.13
2024-01-14T12:13:54.513Z,64.86
2024-01-14T12:16:20.915Z,64.97
2024-01-14T12:18:47.655Z,65.40
2024-01-14T12:21:23.492Z,65.81
2024-01-14T12:23:56.830Z,66.41
2024-01-14T12:26:23.224Z,66.51
2024-01-14T12:28:49.673Z,66.74
2024-01-14T12:31:16.187Z,67.64
2024-01-14T12:33:42.857Z,68.91
2024-01-14T12:36:09.382Z,68.23
2024-01-14T12:38:35.873Z,66.97
2024-01-14T12:41:02.275Z,66.23
2024-01-14T12:43:28.659Z,65.87
2024-01-14T12:45:55.138Z,65.33
2024-01-14T12:48:21.625Z,65.22
2024-01-14T12:50:48.094Z,65.34
2024-01-14T12:53:14.476Z,65.50
2024-01-14T12:55:40.837Z,65.67
2024-01-14T12:58:07.328Z,66.27
2024-01-14T13:00:34.229Z,66.34
2024-01-14T13:03:00.921Z,66.74
2024-01-14T13:05:27.697Z,67.52
2024-01-14T13:07:54.226Z,68.41
2024-01-14T13:10:20.806Z,68.22
2024-01-14T13:12:47.501Z,67.08
2024-01-14T13:15:14.110Z,66.29
2024-01-14T13:17:40.590Z,65.56
2024-01-14T13:20:07.073Z,65.32
2024-01-14T13:22:33.692Z,64.97
2024-01-14T13:25:00.135Z,65.40
2024-01-14T13:27:26.647Z,65.39
2024-01-14T13:29:53.060Z,65.84
2024-01-14T13:32:19.437Z,66.00
2024-01-14T13:34:45.896Z,66.54
2024-01-14T13:37:12.349Z,66.88
2024-01-14T13:39:39.014Z,66.99
2024-01-14T13:42:05.463Z,67.62
2024-01-14T13:44:31.900Z,68.96
2024-01-14T13:46:58.300Z,67.58
2024-01-14T13:49:24.753Z,66.08
2024-01-14T13:51:51.518Z,65.85
2024-01-14T13:54:18.073Z,65.53
2024-01-14T13:56:44.527Z,65.55
2024-01-14T13:59:11.096Z,65.50
2024-01-14T14:01:37.647Z,65.58
2024-01-14T14:04:04.241Z,65.78
2024-01-14T14:06:30.945Z,65.87
2024-01-14T14:08:57.711Z,66.25
2024-01-14T14:11:24.128Z,66.41
2024-01-14T14:13:50.506Z,66.83
2024-01-14T14:16:27.460Z,67.31
2024-01-14T14:19:02.689Z,69.27
2024-01-14T14:21:31.447Z,67.52
2024-01-14T14:23:58.210Z,66.31
2024-01-14T14:26:24.700Z,65.77
2024-01-14T14:28:51.076Z,65.33
2024-01-14T14:31:19.888Z,64.88
2024-01-14T14:33:46.916Z,64.69
2024-01-14T14:36:13.744Z,64.99
2024-01-14T14:38:40.176Z,65.64
2024-01-14T14:41:06.607Z,66.11
2024-01-14T14:43:33.007Z,66.42
2024-01-14T14:45:59.534Z,66.61
2024-01-14T14:48:26.165Z,66.46
2024-01-14T14:50:52.604Z,67.25
2024-01-14T14:53:21.469Z,68.99
2024-01-14T14:55:48.047Z,67.31
2024-01-14T14:58:14.436Z,66.56
2024-01-14T15:00:40.962Z,65.71
2024-01-14T15:03:07.491Z,65.20
2024-01-14T15:05:33.958Z,64.73
2024-01-14T15:08:00.368Z,64.50
2024-01-14T15:10:26.741Z,64.55
2024-01-14T15:12:53.226Z,64.93
2024-01-14T15:15:19.984Z,65.37
2024-01-14T15:17:46.787Z,66.03
2024-01-14T15:20:13.383Z,66.34
2024-01-14T15:22:39.864Z,66.56
2024-01-14T15:25:06.247Z,67.10
2024-01-14T15:27:32.641Z,67.82
2024-01-14T15:29:59.164Z,67.96
2024-01-14T15:32:26.062Z,66.43
2024-01-14T15:34:52.953Z,65.35
2024-01-14T15:37:19.596Z,64.63
2024-01-14T15:39:46.064Z,64.08
2024-01-14T15:42:12.563Z,64.02
2024-01-14T15:44:38.984Z,63.98
2024-01-14T15:47:05.384Z,64.39
2024-01-14T15:49:31.905Z,64.76
2024-01-14T15:51:58.518Z,65.34
2024-01-14T15:54:25.016Z,65.77
2024-01-14T15:56:52.145Z,66.19
2024-01-14T15:59:18.561Z,66.55
2024-01-14T16:01:44.960Z,67.13
2024-01-14T16:04:11.396Z,68.42
2024-01-14T16:06:38.037Z,66.52
2024-01-14T16:09:04.488Z,64.98
2024-01-14T16:11:30.872Z,64.10
2024-01-14T16:13:57.278Z,63.63
2024-01-14T16:16:23.681Z,63.41
2024-01-14T16:18:50.226Z,63.15
2024-01-14T16:21:16.893Z,63.46
2024-01-14T16:23:43.299Z,63.99
2024-01-14T16:26:10.129Z,64.43
2024-01-14T16:28:36.750Z,65.25
2024-01-14T16:31:11.547Z,65.86
2024-01-14T16:33:40.658Z,66.07
2024-01-14T16:36:07.409Z,66.42
2024-01-14T16:38:34.069Z,68.19
2024-01-14T16:41:04.811Z,66.58
2024-01-14T16:43:32.978Z,65.55
2024-01-14T16:45:59.482Z,64.59
2024-01-14T16:48:26.049Z,63.94
2024-01-14T16:51:02.506Z,63.18
2024-01-14T16:53:34.674Z,63.22
2024-01-14T16:56:01.107Z,63.30
2024-01-14T16:58:27.786Z,63.56
2024-01-14T17:01:04.275Z,64.40
2024-01-14T17:03:40.147Z,64.94
2024-01-14T17:06:07.653Z,65.75
2024-01-14T17:08:36.184Z,65.85
2024-01-14T17:11:03.881Z,66.55
2024-01-14T17:13:30.928Z,68.46
2024-01-14T17:16:07.959Z,67.13
2024-01-14T17:18:36.983Z,65.90
2024-01-14T17:21:03.517Z,65.30
2024-01-14T17:23:29.940Z,64.61
2024-01-14T17:26:06.523Z,64.08
2024-01-14T17:28:34.954Z,63.88
2024-01-14T17:31:01.772Z,63.92
2024-01-14T17:33:28.771Z,63.95
2024-01-14T17:36:01.554Z,64.56
2024-01-14T17:38:31.912Z,65.25
2024-01-14T17:40:58.301Z,65.56
2024-01-14T17:43:24.904Z,66.29
2024-01-14T17:46:02.868Z,66.67
2024-01-14T17:48:34.283Z,68.52
2024-01-14T17:51:02.324Z,67.70
2024-01-14T17:53:28.738Z,66.40
2024-01-14T17:55:55.217Z,65.59
2024-01-14T17:58:21.647Z,64.96
2024-01-14T18:00:48.249Z,64.95
2024-01-14T18:03:14.864Z,64.23
2024-01-14T18:05:41.562Z,64.08
2024-01-14T18:08:07.981Z,64.29
2024-01-14T18:10:34.384Z,64.99
2024-01-14T18:13:09.459Z,65.66
2024-01-14T18:15:39.802Z,65.81
2024-01-14T18:18:06.631Z,66.25
2024-01-14T18:20:33.108Z,66.73
2024-01-14T18:23:09.136Z,68.68
2024-01-14T18:25:37.823Z,67.48
2024-01-14T18:28:04.443Z,66.44
2024-01-14T18:30:30.944Z,65.49
2024-01-14T18:33:05.142Z,64.79
2024-01-14T18:35:37.364Z,64.37
2024-01-14T18:38:03.872Z,64.34
2024-01-14T18:40:30.310Z,64.63
2024-01-14T18:42:56.691Z,64.60
2024-01-14T18:45:23.122Z,64.74
2024-01-14T18:47:49.634Z,65.47
2024-01-14T18:50:16.104Z,65.07
2024-01-14T18:52:42.485Z,65.66
2024-01-14T18:55:08.874Z,66.20
2024-01-14T18:57:35.315Z,68.50
2024-01-14T19:00:01.759Z,67.21
2024-01-14T19:02:28.202Z,66.41
2024-01-14T19:04:54.709Z,66.01
2024-01-14T19:07:21.175Z,65.02
2024-01-14T19:09:47.579Z,64.56
2024-01-14T19:12:13.977Z,64.46
2024-01-14T19:14:40.369Z,64.47
2024-01-14T19:17:06.743Z,64.71
2024-01-14T19:19:33.231Z,65.21
2024-01-14T19:21:59.953Z,65.43
2024-01-14T19:24:26.387Z,65.36
2024-01-14T19:26:52.814Z,65.17
2024-01-14T19:29:19.225Z,65.79
2024-01-14T19:31:45.687Z,67.23
2024-01-14T19:34:12.314Z,67.68
2024-01-14T19:36:38.782Z,66.67
2024-01-14T19:39:05.224Z,65.65
2024-01-14T19:41:31.626Z,65.09
2024-01-14T19:43:58.025Z,64.32
2024-01-14T19:46:24.416Z,64.18
2024-01-14T19:48:51.200Z,64.12
2024-01-14T19:51:17.710Z,64.43
2024-01-14T19:53:44.353Z,64.77
2024-01-14T19:56:10.747Z,65.02
2024-01-14T19:58:37.138Z,65.48
2024-01-14T20:01:03.687Z,66.02
2024-01-14T20:03:30.252Z,65.15
2024-01-14T20:05:56.847Z,65.93
2024-01-14T20:08:23.309Z,67.98
2024-01-14T20:10:49.919Z,66.02
2024-01-14T20:13:16.303Z,65.23
2024-01-14T20:15:42.963Z,64.03
2024-01-14T20:18:09.532Z,63.86
2024-01-14T20:20:36.282Z,63.58
2024-01-14T20:23:02.667Z,63.70
2024-01-14T20:25:29.310Z,63.80
2024-01-14T20:27:55.742Z,64.37
2024-01-14T20:30:22.457Z,64.34
2024-01-14T20:32:48.944Z,64.62
2024-01-14T20:35:15.621Z,65.01
2024-01-14T20:37:42.002Z,64.32
2024-01-14T20:40:08.667Z,65.24
2024-01-14T20:42:35.100Z,67.68
2024-01-14T20:45:01.571Z,66.19
2024-01-14T20:47:28.021Z,65.35
2024-01-14T20:49:54.562Z,64.23
2024-01-14T20:52:21.066Z,63.80
2024-01-14T20:54:47.493Z,63.43
2024-01-14T20:57:13.915Z,63.38
2024-01-14T20:59:40.311Z,63.42
2024-01-14T21:02:06.740Z,63.57
2024-01-14T21:04:33.175Z,64.27
2024-01-14T21:06:59.929Z,64.88
2024-01-14T21:09:26.451Z,65.45
2024-01-14T21:11:53.124Z,65.91
2024-01-14T21:14:19.499Z,66.77
2024-01-14T21:16:46.141Z,67.00
2024-01-14T21:19:12.672Z,67.52
2024-01-14T21:21:39.574Z,65.44
2024-01-14T21:24:06.070Z,64.35
2024-01-14T21:26:32.771Z,63.46
2024-01-14T21:28:59.168Z,63.19
2024-01-14T21:31:26.002Z,62.93
2024-01-14T21:33:52.694Z,63.21
2024-01-14T21:36:19.546Z,63.39
2024-01-14T21:38:45.954Z,63.90
2024-01-14T21:41:12.341Z,64.28
2024-01-14T21:43:38.735Z,64.86
2024-01-14T21:46:05.139Z,65.37
2024-01-14T21:48:31.709Z,65.67
2024-01-14T21:50:58.128Z,66.34
2024-01-14T21:53:24.509Z,68.29
2024-01-14T21:55:50.890Z,66.66
2024-01-14T21:58:17.275Z,65.44
2024-01-14T22:00:43.706Z,64.81
2024-01-14T22:03:10.312Z,63.91
2024-01-14T22:05:36.896Z,63.27
2024-01-14T22:08:03.338Z,62.71
2024-01-14T22:10:29.773Z,62.83
2024-01-14T22:12:56.178Z,62.85
2024-01-14T22:15:22.621Z,63.12
2024-01-14T22:17:49.047Z,63.91
2024-01-14T22:20:15.425Z,64.43
2024-01-14T22:22:41.796Z,64.66
2024-01-14T22:25:08.178Z,65.51
2024-01-14T22:27:34.871Z,67.35
2024-01-14T22:30:01.273Z,66.14
2024-01-14T22:32:27.669Z,65.87
2024-01-14T22:34:54.143Z,64.98
2024-01-14T22:37:20.801Z,64.29
2024-01-14T22:39:47.274Z,63.63
2024-01-14T22:42:13.775Z,63.63
2024-01-14T22:44:40.207Z,63.52
2024-01-14T22:47:06.632Z,64.05
2024-01-14T22:49:33.123Z,64.45
2024-01-14T22:51:59.608Z,64.14
2024-01-14T22:54:26.066Z,64.55
2024-01-14T22:56:52.476Z,64.37
2024-01-14T22:59:19.131Z,65.30
2024-01-14T23:01:45.601Z,67.96
2024-01-14T23:04:12.330Z,66.71
2024-01-14T23:06:38.875Z,65.87
2024-01-14T23:09:05.642Z,64.54
2024-01-14T23:11:32.065Z,63.53
2024-01-14T23:13:58.933Z,63.15
2024-01-14T23:16:25.313Z,62.71
2024-01-14T23:18:52.059Z,62.95
2024-01-14T23:21:18.558Z,63.34
2024-01-14T23:23:45.210Z,63.88
2024-01-14T23:26:11.616Z,64.31
2024-01-14T23:28:38.254Z,64.44
2024-01-14T23:31:04.788Z,64.49
2024-01-14T23:33:31.720Z,64.71
2024-01-14T23:35:58.196Z,65.93
2024-01-14T23:38:24.835Z,67.19
2024-01-14T23:40:51.235Z,65.41
2024-01-14T23:43:17.612Z,64.05
2024-01-14T23:45:44.062Z,63.04
2024-01-14T23:48:10.559Z,62.51
2024-01-14T23:50:37.148Z,62.23
2024-01-14T23:53:03.705Z,61.90
2024-01-14T23:55:30.067Z,62.26
2024-01-14T23:57:56.532Z,62.46
